Skip Navigation Links Skip Navigation Links

Current Weather

Allaire, Belmar/Farmingdale, N.J.

For information only: do not use for flight planning or navigation.
Latest weather
Observation time Saturday, June 6, 2020 8:56 PM EDT
Local time Saturday, June 6, 2020 9:16 PM EDT
Flight conditions Visual Meteorological Conditions
Winds
Wind direction Northwest (320°)
Wind speed 10 mph
Visibility 10 mi.
Sky condition
Ceiling 9,000 ft. overcast
Cloud layer overcast 9,000 ft.
Temperature 80°F
Dewpoint 52°F
Altimeter 29.77 in.Hg
Derived measurements
Relative humidity 38%
Heat index 80°F
Density altitude 1869 ft.
Sea-level pressure 29.77 in.Hg
Remarks
Fully automated report.
Automated weather observing station with precipitation discriminator.
METAR KBLM 070056Z AUTO 32009KT 10SM OVC090 27/11 A2977 RMK AO2 SLP081 T02670111

Settings

Location code

InnerDrive.Weather 4.0.6770.0 Release CLR 4.0.30319.42000
Copyright ©2018 Inner Drive Technology. All rights reserved. Portions Copyright ©1986-2018 David Braverman.

Find weather

Site navigation


Skip Navigation Links

Place info

Page info

PayPal - The safer, easier way to pay online!

Return home.

Copyright ©2020 Inner Drive Technology. Purveyors of fine, hand-crafted computer software. Page printed 2020-06-07T01:16:25 UTC.